Time;durP1;ratioP1;P1;durP2;ratioP2;P2;SDS_P1;SDS_P2;PMS_P1;PMS_P2;Temp;Humidity;BMP_temperature;BMP_pressure;BME280_temperature;BME280_humidity;BME280_pressure;Samples;Min_cycle;Max_cycle;Signal;HPM_P1;HPM_P2
2022/11/26 00:00:41;;;;;;;;;;;4.70;99.90;;;;;;5096165;28;19934;-74
2022/11/26 00:03:08;;;;;;;;;;;4.70;99.90;;;;;;5105344;28;20365;-74
2022/11/26 00:05:34;;;;;;;;;;;4.80;99.90;;;;;;5100172;28;19944;-73
2022/11/26 00:07:59;;;;;;;;;;;4.80;99.90;;;;;;5097624;27;20072;-73
2022/11/26 00:10:27;;;;;;;;;;;4.80;99.90;;;;;;5122793;27;20014;-74
2022/11/26 00:12:52;;;;;;;;;;;4.80;99.90;;;;;;5120763;27;19919;-72
2022/11/26 00:15:19;;;;;;;;;;;4.70;99.90;;;;;;5090384;28;20019;-73
2022/11/26 00:17:45;;;;;;;;;;;4.70;99.90;;;;;;5089813;28;19928;-74
2022/11/26 00:20:11;;;;;;;;;;;4.70;99.90;;;;;;5100220;28;19923;-73
2022/11/26 00:22:42;;;;;;;;;;;4.70;99.90;;;;;;5086410;28;19924;-74
2022/11/26 00:25:18;;;;;;;;;;;4.70;99.90;;;;;;5091828;28;20323;-73
2022/11/26 00:27:46;;;;;;;;;;;4.70;99.90;;;;;;5082336;28;20159;-73
2022/11/26 00:30:22;;;;;;;;;;;4.70;99.90;;;;;;5090044;28;19923;-72
2022/11/26 00:32:48;;;;;;;;;;;4.60;99.90;;;;;;5088753;28;19970;-74
2022/11/26 00:35:14;;;;;;;;;;;4.60;99.90;;;;;;5090518;28;19930;-73
2022/11/26 00:37:42;;;;;;;;;;;4.60;99.90;;;;;;5117448;27;20661;-73
2022/11/26 00:40:13;;;;;;;;;;;4.50;99.90;;;;;;5125271;27;19924;-74
2022/11/26 00:42:39;;;;;;;;;;;4.50;99.90;;;;;;5082556;28;19920;-73
2022/11/26 00:45:13;;;;;;;;;;;4.50;99.90;;;;;;5085745;28;20382;-74
2022/11/26 00:47:38;;;;;;;;;;;4.50;99.90;;;;;;5119422;27;19965;-73
2022/11/26 00:50:04;;;;;;;;;;;4.40;99.90;;;;;;5094267;27;19920;-73
2022/11/26 00:52:33;;;;;;;;;;;4.40;99.90;;;;;;5092249;28;19931;-74
2022/11/26 00:55:00;;;;;;;;;;;4.50;99.90;;;;;;5086946;28;19947;-74
2022/11/26 00:57:25;;;;;;;;;;;4.50;99.90;;;;;;5086915;28;19960;-73
2022/11/26 00:59:51;;;;;;;;;;;4.50;99.90;;;;;;5090490;28;19930;-73
2022/11/26 01:02:16;;;;;;;;;;;4.40;99.90;;;;;;5067872;28;19923;-74
2022/11/26 01:04:42;;;;;;;;;;;4.40;99.90;;;;;;5089484;28;19975;-74
2022/11/26 01:07:10;;;;;;;;;;;4.50;99.90;;;;;;5087207;28;19920;-73
2022/11/26 01:09:37;;;;;;;;;;;4.50;99.90;;;;;;5101321;28;19924;-73
2022/11/26 01:12:03;;;;;;;;;;;4.50;99.90;;;;;;5103042;28;19959;-73
2022/11/26 01:14:28;;;;;;;;;;;4.40;99.90;;;;;;5097426;28;19982;-74
2022/11/26 01:16:55;;;;;;;;;;;4.40;99.90;;;;;;5083337;28;19963;-74
2022/11/26 01:19:20;;;;;;;;;;;4.30;99.90;;;;;;5082982;28;19919;-74
2022/11/26 01:21:46;;;;;;;;;;;4.40;99.90;;;;;;5101890;28;19935;-74
2022/11/26 01:24:11;;;;;;;;;;;4.40;99.90;;;;;;5100445;28;20247;-73
2022/11/26 01:26:41;;;;;;;;;;;4.40;99.90;;;;;;5105310;27;19931;-74
2022/11/26 01:29:13;;;;;;;;;;;4.50;99.90;;;;;;5097630;28;20025;-74
2022/11/26 01:31:38;;;;;;;;;;;4.40;99.90;;;;;;5090804;28;20340;-74
2022/11/26 01:34:04;;;;;;;;;;;4.40;99.90;;;;;;5095676;27;19923;-74
2022/11/26 01:36:31;;;;;;;;;;;4.50;99.90;;;;;;5098694;28;19943;-73
2022/11/26 01:39:17;;;;;;;;;;;4.50;99.90;;;;;;5099494;28;19932;-73
2022/11/26 01:42:01;;;;;;;;;;;4.50;99.90;;;;;;5100223;28;19989;-74
2022/11/26 01:44:28;;;;;;;;;;;4.40;99.90;;;;;;5132318;27;19932;-74
2022/11/26 01:46:53;;;;;;;;;;;4.30;99.90;;;;;;5091885;27;19924;-74
2022/11/26 01:49:20;;;;;;;;;;;4.50;99.90;;;;;;5094315;27;19977;-75
2022/11/26 01:51:47;;;;;;;;;;;4.40;99.90;;;;;;5094896;28;19978;-74
2022/11/26 01:54:14;;;;;;;;;;;4.40;99.90;;;;;;5101565;28;19920;-73
2022/11/26 01:56:44;;;;;;;;;;;4.30;99.90;;;;;;5097858;28;20328;-74
2022/11/26 01:59:19;;;;;;;;;;;4.40;99.90;;;;;;5099210;28;19919;-74
2022/11/26 02:01:45;;;;;;;;;;;4.40;99.90;;;;;;5078455;28;19950;-74
2022/11/26 02:04:19;;;;;;;;;;;4.40;99.90;;;;;;5103808;28;19924;-74
2022/11/26 02:06:46;;;;;;;;;;;4.30;99.90;;;;;;5095651;28;20015;-74
2022/11/26 02:09:12;;;;;;;;;;;4.40;99.90;;;;;;5090105;28;19931;-74
2022/11/26 02:11:38;;;;;;;;;;;4.40;99.90;;;;;;5128784;27;19920;-74
2022/11/26 02:14:24;;;;;;;;;;;4.30;99.90;;;;;;5092705;28;19977;-74
2022/11/26 02:16:59;;;;;;;;;;;4.40;99.90;;;;;;5095281;28;19966;-74
2022/11/26 02:19:35;;;;;;;;;;;4.30;99.90;;;;;;5096646;28;19930;-74
2022/11/26 02:22:19;;;;;;;;;;;4.30;99.90;;;;;;5099164;28;20423;-74
2022/11/26 02:24:51;;;;;;;;;;;4.40;99.90;;;;;;5099748;28;19928;-74
2022/11/26 02:27:29;;;;;;;;;;;4.30;99.90;;;;;;5101203;28;20429;-74
2022/11/26 02:29:54;;;;;;;;;;;4.30;99.90;;;;;;5096601;28;19924;-74
2022/11/26 02:32:22;;;;;;;;;;;4.30;99.90;;;;;;5100846;27;19926;-74
2022/11/26 02:34:55;;;;;;;;;;;4.20;99.90;;;;;;5093361;28;19927;-74
2022/11/26 02:37:24;;;;;;;;;;;4.20;99.90;;;;;;5133580;27;20370;-75
2022/11/26 02:39:50;;;;;;;;;;;4.00;99.90;;;;;;5103836;28;19973;-74
2022/11/26 02:42:26;;;;;;;;;;;4.00;99.90;;;;;;5096886;28;20364;-74
2022/11/26 02:44:53;;;;;;;;;;;3.80;99.90;;;;;;5129427;27;19946;-73
2022/11/26 02:47:19;;;;;;;;;;;3.70;99.90;;;;;;5082347;27;20431;-74
2022/11/26 02:49:46;;;;;;;;;;;3.70;99.90;;;;;;5097302;28;20146;-74
2022/11/26 02:52:13;;;;;;;;;;;3.80;99.90;;;;;;5089648;28;19930;-74
2022/11/26 02:54:41;;;;;;;;;;;3.70;99.90;;;;;;5132810;27;19957;-74
2022/11/26 02:57:10;;;;;;;;;;;3.80;99.90;;;;;;5102346;27;20135;-74
2022/11/26 02:59:36;;;;;;;;;;;3.70;99.90;;;;;;5103965;27;19959;-74
2022/11/26 03:02:05;;;;;;;;;;;3.70;99.90;;;;;;5098779;28;20020;-74
2022/11/26 03:04:33;;;;;;;;;;;3.70;99.90;;;;;;5100599;28;19931;-74
2022/11/26 03:07:01;;;;;;;;;;;3.60;99.90;;;;;;5103676;28;19919;-73
2022/11/26 03:09:36;;;;;;;;;;;3.70;99.90;;;;;;5102186;28;19931;-74
2022/11/26 03:12:02;;;;;;;;;;;3.70;99.90;;;;;;5132205;27;19942;-73
2022/11/26 03:14:27;;;;;;;;;;;3.80;99.90;;;;;;5101697;28;19923;-73
2022/11/26 03:16:53;;;;;;;;;;;3.90;99.90;;;;;;5104828;28;20003;-72
2022/11/26 03:19:18;;;;;;;;;;;3.80;99.90;;;;;;5101096;28;20263;-74
2022/11/26 03:21:44;;;;;;;;;;;4.00;99.90;;;;;;5095633;28;20007;-74
2022/11/26 03:24:09;;;;;;;;;;;4.00;99.90;;;;;;5098391;28;19924;-74
2022/11/26 03:26:35;;;;;;;;;;;4.10;99.90;;;;;;5097084;28;20183;-73
2022/11/26 03:29:00;;;;;;;;;;;4.10;99.90;;;;;;5099873;28;19920;-73
2022/11/26 03:31:26;;;;;;;;;;;4.00;99.90;;;;;;5109577;27;19985;-73
2022/11/26 03:33:51;;;;;;;;;;;4.10;99.90;;;;;;5132600;27;20016;-74
2022/11/26 03:39:39;;;;;;;;;;;3.90;99.90;;;;;;5113417;28;19919;-74
2022/11/26 03:42:04;;;;;;;;;;;4.00;99.90;;;;;;5097650;28;19920;-73
2022/11/26 03:44:30;;;;;;;;;;;4.00;99.90;;;;;;5140868;27;19972;-73
2022/11/26 03:46:55;;;;;;;;;;;3.90;99.90;;;;;;5112047;28;20382;-73
2022/11/26 03:49:21;;;;;;;;;;;3.90;99.90;;;;;;5099429;28;19920;-73
2022/11/26 03:51:46;;;;;;;;;;;3.90;99.90;;;;;;5116032;28;19927;-73
2022/11/26 03:54:12;;;;;;;;;;;3.90;99.90;;;;;;5121525;27;19978;-73
2022/11/26 03:56:37;;;;;;;;;;;3.90;99.90;;;;;;5119941;27;19920;-73
2022/11/26 03:59:03;;;;;;;;;;;3.90;99.90;;;;;;5124952;27;19920;-72
2022/11/26 04:01:28;;;;;;;;;;;3.80;99.90;;;;;;5095786;28;19924;-73
2022/11/26 04:07:16;;;;;;;;;;;3.90;99.90;;;;;;5097449;28;20405;-72
2022/11/26 04:09:41;;;;;;;;;;;3.80;99.90;;;;;;5114488;28;19924;-72
2022/11/26 04:12:07;;;;;;;;;;;3.70;99.90;;;;;;5098156;28;19924;-72
2022/11/26 04:14:32;;;;;;;;;;;3.70;99.90;;;;;;5109076;28;19919;-72
2022/11/26 04:16:58;;;;;;;;;;;3.60;99.90;;;;;;5104377;28;19919;-72
2022/11/26 04:19:25;;;;;;;;;;;3.60;99.90;;;;;;5096578;28;20349;-72
2022/11/26 04:25:26;;;;;;;;;;;3.70;99.90;;;;;;5103704;28;19927;-72
2022/11/26 04:27:52;;;;;;;;;;;3.60;99.90;;;;;;5098823;28;20000;-71
2022/11/26 04:30:17;;;;;;;;;;;3.60;99.90;;;;;;5115299;28;20393;-71
2022/11/26 04:32:43;;;;;;;;;;;3.60;99.90;;;;;;5115302;28;19942;-72
2022/11/26 04:35:08;;;;;;;;;;;3.60;99.90;;;;;;5092853;28;19920;-72
2022/11/26 04:37:34;;;;;;;;;;;3.60;99.90;;;;;;5095119;28;19920;-71
2022/11/26 04:43:06;;;;;;;;;;;3.60;99.90;;;;;;5103108;28;20346;-72
2022/11/26 04:45:32;;;;;;;;;;;3.60;99.90;;;;;;5111174;28;20382;-72
2022/11/26 04:47:57;;;;;;;;;;;3.60;99.90;;;;;;5084802;28;19920;-71
2022/11/26 04:50:23;;;;;;;;;;;3.60;99.90;;;;;;5108251;28;19927;-71
2022/11/26 04:52:49;;;;;;;;;;;3.70;99.90;;;;;;5104964;28;20375;-71
2022/11/26 04:55:15;;;;;;;;;;;3.70;99.90;;;;;;5144011;27;19919;-71
2022/11/26 04:57:41;;;;;;;;;;;3.70;99.90;;;;;;5106827;28;19920;-71
2022/11/26 05:00:07;;;;;;;;;;;3.60;99.90;;;;;;5103859;28;19924;-71
2022/11/26 05:02:32;;;;;;;;;;;3.80;99.90;;;;;;5103498;28;20375;-71
2022/11/26 05:04:58;;;;;;;;;;;3.70;99.90;;;;;;5142391;27;20014;-71
2022/11/26 05:07:23;;;;;;;;;;;3.70;99.90;;;;;;5107406;28;19923;-71
2022/11/26 05:09:49;;;;;;;;;;;3.70;99.90;;;;;;5105946;28;19920;-72
2022/11/26 05:12:14;;;;;;;;;;;3.80;99.90;;;;;;5102464;28;19989;-71
2022/11/26 05:18:01;;;;;;;;;;;3.70;99.90;;;;;;5104757;28;19938;-71
2022/11/26 05:20:27;;;;;;;;;;;3.70;99.90;;;;;;5111212;28;19920;-71
2022/11/26 05:22:52;;;;;;;;;;;3.70;99.90;;;;;;5112471;28;19926;-71
2022/11/26 05:25:18;;;;;;;;;;;3.70;99.90;;;;;;5077483;28;19924;-71
2022/11/26 05:27:58;;;;;;;;;;;3.70;99.90;;;;;;5112047;28;19945;-72
2022/11/26 05:30:23;;;;;;;;;;;3.70;99.90;;;;;;5097456;28;20297;-71
2022/11/26 05:32:49;;;;;;;;;;;3.60;99.90;;;;;;5136748;27;19934;-71
2022/11/26 05:35:14;;;;;;;;;;;3.60;99.90;;;;;;5108795;28;19920;-71
2022/11/26 05:41:02;;;;;;;;;;;3.60;99.90;;;;;;5106821;28;19919;-71
2022/11/26 05:43:27;;;;;;;;;;;3.60;99.90;;;;;;5106293;28;19924;-72
2022/11/26 05:45:53;;;;;;;;;;;3.60;99.90;;;;;;5094148;28;20291;-72
2022/11/26 05:48:18;;;;;;;;;;;3.50;99.90;;;;;;5107724;28;19920;-73
2022/11/26 05:50:44;;;;;;;;;;;3.50;99.90;;;;;;5106609;28;19920;-71
2022/11/26 05:53:09;;;;;;;;;;;3.40;99.90;;;;;;5101872;28;20337;-71
2022/11/26 05:55:35;;;;;;;;;;;3.50;99.90;;;;;;5100947;28;19963;-71
2022/11/26 05:58:00;;;;;;;;;;;3.40;99.90;;;;;;5100001;28;20031;-71
2022/11/26 06:00:26;;;;;;;;;;;3.30;99.90;;;;;;5137903;27;19965;-71
2022/11/26 06:02:51;;;;;;;;;;;3.30;99.90;;;;;;5096007;28;20393;-71
2022/11/26 06:05:17;;;;;;;;;;;3.30;99.90;;;;;;5106881;28;19923;-71
2022/11/26 06:07:42;;;;;;;;;;;3.30;99.90;;;;;;5097477;28;19926;-71
2022/11/26 06:10:17;;;;;;;;;;;3.30;99.90;;;;;;5088890;28;19927;-71
2022/11/26 06:12:42;;;;;;;;;;;3.30;99.90;;;;;;5088122;28;19923;-70
2022/11/26 06:15:08;;;;;;;;;;;3.50;99.90;;;;;;5085361;28;20000;-72
2022/11/26 06:17:33;;;;;;;;;;;3.40;99.90;;;;;;5119313;27;19919;-72
2022/11/26 06:19:59;;;;;;;;;;;3.40;99.90;;;;;;5087539;28;19923;-71
2022/11/26 06:22:24;;;;;;;;;;;3.50;99.90;;;;;;5083598;28;20384;-72
2022/11/26 06:24:50;;;;;;;;;;;3.50;99.90;;;;;;5075362;28;19931;-71
2022/11/26 06:27:15;;;;;;;;;;;3.40;99.90;;;;;;5090750;28;19924;-71
2022/11/26 06:29:41;;;;;;;;;;;3.50;99.90;;;;;;5103489;27;20014;-71
2022/11/26 06:32:06;;;;;;;;;;;3.50;99.90;;;;;;5088182;27;19931;-71
2022/11/26 06:34:32;;;;;;;;;;;3.50;99.90;;;;;;5086932;28;19942;-71
2022/11/26 06:36:57;;;;;;;;;;;3.50;99.90;;;;;;5117765;27;20301;-71
2022/11/26 06:39:29;;;;;;;;;;;3.50;99.90;;;;;;5086248;28;19920;-71
2022/11/26 06:41:54;;;;;;;;;;;3.60;99.90;;;;;;5067368;28;19978;-70
2022/11/26 06:44:20;;;;;;;;;;;3.40;99.90;;;;;;5083936;28;19975;-70
2022/11/26 06:46:46;;;;;;;;;;;3.40;99.90;;;;;;5076688;28;19920;-71
2022/11/26 06:49:22;;;;;;;;;;;3.50;99.90;;;;;;5115830;27;20260;-71
2022/11/26 06:51:48;;;;;;;;;;;3.40;99.90;;;;;;5084847;28;19920;-70
2022/11/26 06:54:13;;;;;;;;;;;3.40;99.90;;;;;;5084822;28;19931;-71
2022/11/26 06:56:39;;;;;;;;;;;3.40;99.90;;;;;;5080366;28;19963;-70
2022/11/26 06:59:16;;;;;;;;;;;3.50;99.90;;;;;;5079639;28;19920;-70
2022/11/26 07:01:42;;;;;;;;;;;3.40;99.90;;;;;;5093307;28;19946;-71
2022/11/26 07:04:08;;;;;;;;;;;3.50;99.90;;;;;;5087626;28;19928;-71
2022/11/26 07:06:34;;;;;;;;;;;3.50;99.90;;;;;;5080560;28;19958;-71
2022/11/26 07:09:04;;;;;;;;;;;3.50;99.90;;;;;;5091136;28;20014;-69
2022/11/26 07:11:30;;;;;;;;;;;3.50;99.90;;;;;;5084594;28;19927;-70
2022/11/26 07:13:56;;;;;;;;;;;3.40;99.90;;;;;;5104366;28;20366;-70
2022/11/26 07:16:21;;;;;;;;;;;3.40;99.90;;;;;;5098953;28;20015;-70
2022/11/26 07:18:53;;;;;;;;;;;3.50;99.90;;;;;;5104656;28;19974;-69
2022/11/26 07:21:18;;;;;;;;;;;3.40;99.90;;;;;;5095769;28;19920;-70
2022/11/26 07:23:44;;;;;;;;;;;3.40;99.90;;;;;;5129866;27;20010;-70
2022/11/26 07:26:10;;;;;;;;;;;3.40;99.90;;;;;;5089183;28;19924;-70
2022/11/26 07:28:36;;;;;;;;;;;3.50;99.90;;;;;;5100894;28;19920;-70
2022/11/26 07:31:03;;;;;;;;;;;3.50;99.90;;;;;;5097644;28;20371;-70
2022/11/26 07:33:29;;;;;;;;;;;3.50;99.90;;;;;;5097611;28;19924;-69
2022/11/26 07:35:59;;;;;;;;;;;3.50;99.90;;;;;;5092963;28;19927;-70
2022/11/26 07:38:46;;;;;;;;;;;3.50;99.90;;;;;;5112014;28;19919;-71
2022/11/26 07:41:13;;;;;;;;;;;3.50;99.90;;;;;;5108294;28;19920;-69
2022/11/26 07:43:39;;;;;;;;;;;3.50;99.90;;;;;;5112402;28;20415;-70
2022/11/26 07:46:17;;;;;;;;;;;3.50;99.90;;;;;;5112506;28;19946;-70
2022/11/26 07:48:43;;;;;;;;;;;3.50;99.90;;;;;;5135313;27;19919;-70
2022/11/26 07:51:24;;;;;;;;;;;3.40;99.90;;;;;;5104761;28;19927;-70
2022/11/26 07:53:50;;;;;;;;;;;3.50;99.90;;;;;;5125875;27;20278;-69
2022/11/26 07:56:16;;;;;;;;;;;3.40;99.90;;;;;;5134745;27;20291;-69
2022/11/26 07:58:42;;;;;;;;;;;3.50;99.90;;;;;;5103349;28;20007;-70
2022/11/26 08:01:27;;;;;;;;;;;3.50;99.90;;;;;;5105954;28;20413;-69
2022/11/26 08:03:53;;;;;;;;;;;3.40;99.90;;;;;;5095305;28;19927;-69
2022/11/26 08:06:25;;;;;;;;;;;3.60;99.90;;;;;;5104024;28;19926;-70
2022/11/26 08:08:50;;;;;;;;;;;3.60;99.90;;;;;;5125999;28;20282;-70
2022/11/26 08:11:18;;;;;;;;;;;3.70;99.90;;;;;;5110691;28;19920;-69
2022/11/26 08:13:44;;;;;;;;;;;3.70;99.90;;;;;;5146279;27;20009;-69
2022/11/26 08:16:28;;;;;;;;;;;3.70;99.90;;;;;;5113524;28;20412;-70
2022/11/26 08:18:54;;;;;;;;;;;3.80;99.90;;;;;;5113075;28;19973;-69
2022/11/26 08:21:20;;;;;;;;;;;3.80;99.90;;;;;;5107468;28;19955;-69
2022/11/26 08:23:45;;;;;;;;;;;3.70;99.90;;;;;;5101233;27;20093;-69
2022/11/26 08:26:12;;;;;;;;;;;3.70;99.90;;;;;;5111164;27;19923;-70
2022/11/26 08:28:38;;;;;;;;;;;3.70;99.90;;;;;;5110285;27;19920;-70
2022/11/26 08:31:04;;;;;;;;;;;3.90;99.90;;;;;;5098831;28;20390;-69
2022/11/26 08:33:30;;;;;;;;;;;3.90;99.90;;;;;;5133377;27;19920;-68
2022/11/26 08:35:58;;;;;;;;;;;3.90;99.90;;;;;;5130582;27;20396;-68
2022/11/26 08:38:25;;;;;;;;;;;4.00;99.90;;;;;;5139385;27;19945;-68
2022/11/26 08:40:51;;;;;;;;;;;4.00;99.90;;;;;;5102474;28;20014;-69
2022/11/26 08:43:17;;;;;;;;;;;4.10;99.90;;;;;;5105852;28;20400;-69
2022/11/26 08:45:43;;;;;;;;;;;4.20;99.90;;;;;;5140713;27;19928;-68
2022/11/26 08:48:08;;;;;;;;;;;4.30;99.90;;;;;;5093127;28;20278;-67
2022/11/26 08:50:33;;;;;;;;;;;4.40;99.90;;;;;;5105940;27;20375;-70
2022/11/26 08:52:59;;;;;;;;;;;4.40;99.90;;;;;;5096565;27;19995;-70
2022/11/26 08:55:24;;;;;;;;;;;4.60;99.90;;;;;;5109844;27;19927;-71
2022/11/26 08:57:50;;;;;;;;;;;4.70;99.90;;;;;;5102307;28;19960;-68
2022/11/26 09:00:16;;;;;;;;;;;4.70;99.90;;;;;;5101747;27;20625;-65
2022/11/26 09:02:41;;;;;;;;;;;4.70;99.90;;;;;;5097649;28;19974;-67
2022/11/26 09:05:07;;;;;;;;;;;4.80;99.90;;;;;;5100446;28;20007;-66
2022/11/26 09:07:32;;;;;;;;;;;5.00;99.90;;;;;;5107515;27;19931;-65
2022/11/26 09:09:58;;;;;;;;;;;5.10;99.90;;;;;;5111035;28;19999;-65
2022/11/26 09:12:23;;;;;;;;;;;5.10;99.90;;;;;;5107585;28;19927;-65
2022/11/26 09:14:49;;;;;;;;;;;5.10;99.90;;;;;;5107242;28;20362;-65
2022/11/26 09:17:14;;;;;;;;;;;5.30;99.90;;;;;;5105503;28;19969;-65
2022/11/26 09:19:39;;;;;;;;;;;5.30;99.90;;;;;;5112119;27;19959;-66
2022/11/26 09:22:05;;;;;;;;;;;5.50;99.90;;;;;;5107825;28;19920;-65
2022/11/26 09:24:30;;;;;;;;;;;5.40;99.90;;;;;;5107825;27;19924;-66
2022/11/26 09:26:56;;;;;;;;;;;5.50;99.90;;;;;;5108966;28;19920;-66
2022/11/26 09:29:22;;;;;;;;;;;5.70;99.90;;;;;;5108282;28;19949;-66
2022/11/26 09:31:48;;;;;;;;;;;5.80;99.90;;;;;;5110300;28;20370;-64
2022/11/26 09:34:14;;;;;;;;;;;5.80;99.90;;;;;;5121436;27;19920;-65
2022/11/26 09:36:39;;;;;;;;;;;5.90;99.90;;;;;;5101703;28;19927;-69
2022/11/26 09:39:05;;;;;;;;;;;6.00;99.90;;;;;;5111388;28;20061;-66
2022/11/26 09:41:52;;;;;;;;;;;6.10;99.90;;;;;;5104774;28;19964;-66
2022/11/26 09:44:27;;;;;;;;;;;6.20;99.90;;;;;;5144194;27;20019;-67
2022/11/26 09:46:55;;;;;;;;;;;6.40;99.90;;;;;;5101962;28;19920;-66
2022/11/26 09:49:22;;;;;;;;;;;6.40;99.90;;;;;;5105252;28;19927;-65
2022/11/26 09:51:50;;;;;;;;;;;6.60;99.90;;;;;;5110192;28;20108;-68
2022/11/26 09:54:17;;;;;;;;;;;6.70;99.90;;;;;;5121061;27;19982;-67
2022/11/26 09:56:43;;;;;;;;;;;6.80;99.90;;;;;;5104743;27;20450;-66
2022/11/26 09:59:12;;;;;;;;;;;6.80;99.90;;;;;;5105037;28;19920;-68
2022/11/26 10:01:39;;;;;;;;;;;6.80;99.90;;;;;;5106273;27;19920;-68
2022/11/26 10:04:14;;;;;;;;;;;7.00;99.90;;;;;;5100862;28;20317;-69
2022/11/26 10:06:50;;;;;;;;;;;7.00;99.90;;;;;;5111256;28;20392;-69
2022/11/26 10:09:19;;;;;;;;;;;7.00;99.90;;;;;;5111378;28;20396;-68
2022/11/26 10:12:00;;;;;;;;;;;7.20;99.90;;;;;;5095798;28;19927;-68
2022/11/26 10:14:28;;;;;;;;;;;7.20;99.90;;;;;;5103806;28;19987;-67
2022/11/26 10:17:13;;;;;;;;;;;7.20;99.90;;;;;;5112900;28;19920;-68
2022/11/26 10:19:48;;;;;;;;;;;7.40;99.90;;;;;;5112505;28;20323;-68
2022/11/26 10:22:23;;;;;;;;;;;7.40;99.90;;;;;;5113115;28;19920;-68
2022/11/26 10:24:55;;;;;;;;;;;7.50;99.90;;;;;;5104122;28;19924;-69
2022/11/26 10:27:31;;;;;;;;;;;7.50;99.90;;;;;;5103335;28;19920;-68
2022/11/26 10:29:59;;;;;;;;;;;7.60;99.90;;;;;;5111859;28;19919;-68
2022/11/26 10:32:37;;;;;;;;;;;7.60;99.90;;;;;;5117530;27;20301;-69
2022/11/26 10:35:19;;;;;;;;;;;7.60;99.90;;;;;;5109758;28;19927;-68
2022/11/26 10:37:57;;;;;;;;;;;7.60;99.90;;;;;;5095415;28;19919;-68
2022/11/26 10:40:25;;;;;;;;;;;7.70;99.90;;;;;;5109837;28;20019;-69
2022/11/26 10:43:11;;;;;;;;;;;7.80;99.90;;;;;;5094236;28;19969;-69
2022/11/26 10:45:37;;;;;;;;;;;7.70;99.90;;;;;;5085648;28;19924;-70
2022/11/26 10:48:21;;;;;;;;;;;7.80;99.90;;;;;;5111454;28;19964;-72
2022/11/26 10:50:58;;;;;;;;;;;7.90;99.90;;;;;;5105690;28;19919;-71
2022/11/26 10:53:24;;;;;;;;;;;7.80;99.90;;;;;;5100450;28;20363;-72
2022/11/26 10:56:04;;;;;;;;;;;7.80;99.90;;;;;;5097218;28;19955;-70
2022/11/26 10:58:31;;;;;;;;;;;7.90;99.90;;;;;;5107107;28;19920;-71
2022/11/26 11:01:04;;;;;;;;;;;8.00;99.90;;;;;;5087920;28;20004;-70
2022/11/26 11:03:46;;;;;;;;;;;8.00;99.90;;;;;;5086449;28;20334;-71
2022/11/26 11:06:14;;;;;;;;;;;8.10;99.90;;;;;;5125935;27;19930;-71
2022/11/26 11:08:40;;;;;;;;;;;8.10;99.90;;;;;;5087257;28;19923;-71
2022/11/26 11:11:16;;;;;;;;;;;8.10;99.90;;;;;;5104114;28;20320;-71
2022/11/26 11:13:42;;;;;;;;;;;8.00;99.90;;;;;;5108765;28;19926;-71
2022/11/26 11:16:28;;;;;;;;;;;8.20;99.90;;;;;;5136794;27;20436;-71
2022/11/26 11:18:55;;;;;;;;;;;8.10;99.90;;;;;;5145224;27;19920;-71
2022/11/26 11:21:23;;;;;;;;;;;8.20;99.90;;;;;;5108692;28;20324;-72
2022/11/26 11:23:49;;;;;;;;;;;8.30;99.90;;;;;;5102908;28;20003;-71
2022/11/26 11:26:21;;;;;;;;;;;8.30;99.90;;;;;;5093423;28;20031;-73
2022/11/26 11:28:51;;;;;;;;;;;8.40;99.90;;;;;;5108408;28;20219;-71
2022/11/26 11:31:17;;;;;;;;;;;8.30;99.90;;;;;;5111498;28;20426;-71
2022/11/26 11:33:42;;;;;;;;;;;8.40;99.90;;;;;;5111401;28;19923;-71
2022/11/26 11:36:14;;;;;;;;;;;8.30;99.90;;;;;;5111269;28;20271;-71
2022/11/26 11:38:51;;;;;;;;;;;8.50;99.90;;;;;;5107615;28;20327;-72
2022/11/26 11:41:28;;;;;;;;;;;8.50;99.90;;;;;;5107004;28;20263;-71
2022/11/26 11:47:31;;;;;;;;;;;8.40;99.90;;;;;;5098478;28;20008;-72
2022/11/26 11:50:24;;;;;;;;;;;8.40;99.90;;;;;;5108954;28;19989;-72
2022/11/26 11:53:14;;;;;;;;;;;8.50;99.90;;;;;;5114869;28;19988;-73
2022/11/26 11:55:58;;;;;;;;;;;8.40;99.90;;;;;;5116217;28;19972;-71
2022/11/26 11:58:50;;;;;;;;;;;8.50;99.90;;;;;;5109286;28;20248;-73
2022/11/26 12:01:22;;;;;;;;;;;8.60;99.90;;;;;;5140676;27;20509;-71
2022/11/26 12:04:10;;;;;;;;;;;8.60;99.90;;;;;;5114642;28;19927;-71
2022/11/26 12:06:45;;;;;;;;;;;8.50;99.90;;;;;;5074757;28;20305;-71
2022/11/26 12:09:23;;;;;;;;;;;8.50;99.90;;;;;;5106594;28;19923;-70
2022/11/26 12:12:11;;;;;;;;;;;8.50;99.90;;;;;;5131239;27;20382;-71
2022/11/26 12:14:40;;;;;;;;;;;8.60;99.90;;;;;;5109622;27;20548;-70
2022/11/26 12:17:10;;;;;;;;;;;8.50;99.90;;;;;;5110456;28;19967;-71
2022/11/26 12:19:36;;;;;;;;;;;8.70;99.90;;;;;;5110058;27;19920;-71
2022/11/26 12:22:14;;;;;;;;;;;8.70;99.90;;;;;;5109821;28;19926;-71
2022/11/26 12:24:48;;;;;;;;;;;8.80;99.90;;;;;;5112076;28;19923;-72
2022/11/26 12:27:23;;;;;;;;;;;8.80;99.90;;;;;;5126333;27;19931;-70
2022/11/26 12:29:55;;;;;;;;;;;8.80;99.90;;;;;;5106691;27;19924;-71
2022/11/26 12:32:32;;;;;;;;;;;8.90;99.90;;;;;;5105696;27;20014;-70
2022/11/26 12:35:01;;;;;;;;;;;9.00;99.90;;;;;;5120649;27;19923;-71
2022/11/26 12:37:29;;;;;;;;;;;9.00;99.90;;;;;;5112725;28;19964;-72
2022/11/26 12:39:55;;;;;;;;;;;9.00;99.90;;;;;;5111370;28;20427;-72
2022/11/26 12:42:35;;;;;;;;;;;9.10;99.90;;;;;;5111631;28;20006;-71
2022/11/26 12:45:15;;;;;;;;;;;9.00;99.90;;;;;;5108961;28;19931;-72
2022/11/26 12:47:43;;;;;;;;;;;9.00;99.90;;;;;;5108069;28;19930;-72
2022/11/26 12:50:16;;;;;;;;;;;9.00;99.90;;;;;;5099945;28;20331;-71
2022/11/26 12:52:56;;;;;;;;;;;9.20;99.90;;;;;;5098714;28;20376;-70
2022/11/26 12:55:25;;;;;;;;;;;9.10;99.90;;;;;;5099312;27;19939;-71
2022/11/26 12:57:53;;;;;;;;;;;9.20;99.90;;;;;;5113670;27;19977;-70
2022/11/26 13:00:20;;;;;;;;;;;9.20;99.90;;;;;;5106095;28;20014;-71
2022/11/26 13:02:49;;;;;;;;;;;9.20;99.90;;;;;;5107610;28;20379;-70
2022/11/26 13:05:44;;;;;;;;;;;9.20;99.90;;;;;;5135030;27;19928;-70
2022/11/26 13:08:18;;;;;;;;;;;9.30;99.90;;;;;;5111811;27;19923;-70
2022/11/26 13:10:53;;;;;;;;;;;9.20;99.90;;;;;;5133534;27;19919;-71
2022/11/26 13:13:21;;;;;;;;;;;9.20;99.90;;;;;;5100614;28;19920;-70
2022/11/26 13:16:02;;;;;;;;;;;9.20;99.90;;;;;;5101486;27;19976;-70
2022/11/26 13:18:30;;;;;;;;;;;9.10;99.90;;;;;;5102404;28;20369;-71
2022/11/26 13:20:56;;;;;;;;;;;9.20;99.90;;;;;;5101594;27;20357;-71
2022/11/26 13:23:21;;;;;;;;;;;9.10;99.90;;;;;;5098461;27;19924;-71
2022/11/26 13:25:47;;;;;;;;;;;9.10;99.90;;;;;;5101792;27;20361;-72
2022/11/26 13:28:17;;;;;;;;;;;9.20;99.90;;;;;;5098336;27;19968;-71
2022/11/26 13:30:43;;;;;;;;;;;9.20;99.90;;;;;;5090778;28;19919;-71
2022/11/26 13:33:22;;;;;;;;;;;9.10;99.90;;;;;;5089253;28;19928;-71
2022/11/26 13:35:52;;;;;;;;;;;9.00;99.90;;;;;;5107195;28;20319;-70
2022/11/26 13:38:20;;;;;;;;;;;9.10;99.90;;;;;;5110322;28;20034;-70
2022/11/26 13:41:03;;;;;;;;;;;8.90;99.90;;;;;;5102800;28;20480;-70
2022/11/26 13:43:42;;;;;;;;;;;9.00;99.90;;;;;;5101814;28;19954;-71
2022/11/26 13:46:13;;;;;;;;;;;9.00;99.90;;;;;;5110750;28;19935;-70
2022/11/26 13:48:48;;;;;;;;;;;9.10;99.90;;;;;;5108577;28;19927;-69
2022/11/26 13:51:32;;;;;;;;;;;8.90;99.90;;;;;;5085204;28;19972;-69
2022/11/26 13:54:01;;;;;;;;;;;8.90;99.90;;;;;;5110593;27;20006;-71
2022/11/26 13:56:31;;;;;;;;;;;9.00;99.90;;;;;;5122466;27;20283;-71
2022/11/26 13:59:15;;;;;;;;;;;8.90;99.90;;;;;;5090674;28;19972;-70
2022/11/26 14:01:41;;;;;;;;;;;9.00;99.90;;;;;;5117679;27;20018;-71
2022/11/26 14:04:13;;;;;;;;;;;8.90;99.90;;;;;;5108447;28;19994;-71
2022/11/26 14:06:58;;;;;;;;;;;9.00;99.90;;;;;;5138426;27;19919;-70
2022/11/26 14:09:42;;;;;;;;;;;9.00;99.90;;;;;;5098117;28;19920;-71
2022/11/26 14:12:08;;;;;;;;;;;8.90;99.90;;;;;;5093020;28;20018;-71
2022/11/26 14:14:35;;;;;;;;;;;8.90;99.90;;;;;;5103684;28;20306;-71
2022/11/26 14:17:01;;;;;;;;;;;8.90;99.90;;;;;;5101674;28;19978;-71
2022/11/26 14:19:38;;;;;;;;;;;8.90;99.90;;;;;;5122773;27;19974;-71
2022/11/26 14:22:15;;;;;;;;;;;8.90;99.90;;;;;;5106927;28;19923;-71
2022/11/26 14:24:47;;;;;;;;;;;8.90;99.90;;;;;;5110389;28;19924;-70
2022/11/26 14:27:16;;;;;;;;;;;8.90;99.90;;;;;;5095861;28;19920;-70
2022/11/26 14:29:42;;;;;;;;;;;8.90;99.90;;;;;;5092776;28;19928;-71
2022/11/26 14:32:16;;;;;;;;;;;8.70;99.90;;;;;;5103731;28;19935;-72
2022/11/26 14:34:50;;;;;;;;;;;8.70;99.90;;;;;;5108002;28;20412;-71
2022/11/26 14:37:17;;;;;;;;;;;8.60;99.90;;;;;;5107901;28;19963;-71
2022/11/26 14:39:43;;;;;;;;;;;8.70;99.90;;;;;;5131907;27;19920;-70
2022/11/26 14:42:15;;;;;;;;;;;8.60;99.90;;;;;;5108630;28;19923;-70
2022/11/26 14:44:40;;;;;;;;;;;8.70;99.90;;;;;;5102831;28;20362;-70
2022/11/26 14:47:24;;;;;;;;;;;8.60;99.90;;;;;;5142397;27;19919;-71
2022/11/26 14:49:56;;;;;;;;;;;8.60;99.90;;;;;;5098431;28;20413;-71
2022/11/26 14:52:32;;;;;;;;;;;8.50;99.90;;;;;;5095467;28;19920;-70
2022/11/26 14:55:00;;;;;;;;;;;8.50;99.90;;;;;;5128427;27;19923;-71
2022/11/26 14:57:37;;;;;;;;;;;8.60;99.90;;;;;;5103285;28;20324;-72
2022/11/26 15:00:05;;;;;;;;;;;8.50;99.90;;;;;;5102254;28;19962;-70
2022/11/26 15:02:31;;;;;;;;;;;8.50;99.90;;;;;;5095774;28;19924;-71
2022/11/26 15:05:01;;;;;;;;;;;8.40;99.90;;;;;;5107815;27;19923;-71
2022/11/26 15:07:27;;;;;;;;;;;8.40;99.90;;;;;;5108345;28;19920;-70